createdAt,value
2018-02-10T00:00:08.568Z,57.55
2018-02-10T00:02:36.082Z,47.65
2018-02-10T00:05:03.594Z,46.70
2018-02-10T00:07:31.128Z,48.60
2018-02-10T00:09:58.616Z,51.15
2018-02-10T00:12:26.172Z,45.53
2018-02-10T00:14:53.665Z,46.65
2018-02-10T00:17:21.202Z,46.67
2018-02-10T00:19:48.698Z,48.55
2018-02-10T00:22:22.670Z,48.45
2018-02-10T00:24:50.221Z,46.05
2018-02-10T00:27:17.775Z,53.40
2018-02-10T00:29:45.330Z,46.08
2018-02-10T00:32:12.852Z,47.22
2018-02-10T00:34:40.355Z,47.25
2018-02-10T00:37:07.854Z,49.80
2018-02-10T00:39:35.337Z,52.92
2018-02-10T00:42:02.844Z,50.50
2018-02-10T00:44:30.337Z,50.55
2018-02-10T00:46:57.827Z,47.95
2018-02-10T00:49:27.963Z,50.58
2018-02-10T00:51:55.458Z,59.08
2018-02-10T00:54:22.979Z,50.33
2018-02-10T00:56:50.482Z,43.53
2018-02-10T00:59:18.002Z,53.78
2018-02-10T01:01:45.515Z,47.97
2018-02-10T01:04:13.018Z,56.30
2018-02-10T01:06:40.986Z,53.25
2018-02-10T01:09:08.479Z,56.20
2018-02-10T01:11:35.981Z,60.92
2018-02-10T01:14:03.469Z,50.83
2018-02-10T01:16:30.954Z,52.85
2018-02-10T01:18:58.449Z,62.97
2018-02-10T01:21:26.547Z,58.15
2018-02-10T01:23:54.211Z,53.85
2018-02-10T01:26:21.770Z,59.60
2018-02-10T01:28:49.329Z,67.25
2018-02-10T01:31:16.890Z,55.75
2018-02-10T01:33:44.449Z,62.88
2018-02-10T01:36:11.945Z,61.60
2018-02-10T01:38:39.433Z,60.65
2018-02-10T01:41:06.919Z,67.55
2018-02-10T01:43:34.410Z,56.92
2018-02-10T01:46:01.901Z,66.22
2018-02-10T01:48:29.500Z,61.15
2018-02-10T01:50:56.994Z,63.97
2018-02-10T01:53:24.477Z,58.33
2018-02-10T01:55:51.977Z,57.65
2018-02-10T01:58:19.462Z,56.67
2018-02-10T02:00:46.969Z,67.12
2018-02-10T02:03:14.461Z,65.95
2018-02-10T02:05:41.957Z,66.25
2018-02-10T02:08:09.449Z,67.37
2018-02-10T02:10:36.933Z,64.47
2018-02-10T02:13:04.440Z,55.50
2018-02-10T02:15:31.941Z,68.53
2018-02-10T02:17:59.437Z,67.72
2018-02-10T02:20:26.960Z,73.22
2018-02-10T02:22:54.444Z,77.40
2018-02-10T02:25:21.942Z,64.45
2018-02-10T02:27:49.537Z,76.47
2018-02-10T02:30:17.021Z,69.57
2018-02-10T02:32:44.523Z,64.28
2018-02-10T02:35:12.116Z,72.60
2018-02-10T02:37:39.618Z,71.65
2018-02-10T02:40:07.110Z,69.60
2018-02-10T02:42:34.594Z,71.75
2018-02-10T02:45:02.086Z,61.85
2018-02-10T02:47:29.577Z,66.37
2018-02-10T02:49:57.066Z,64.90
2018-02-10T02:52:24.550Z,58.35
2018-02-10T02:54:52.112Z,57.72
2018-02-10T02:57:19.618Z,57.42
2018-02-10T02:59:47.306Z,61.78
2018-02-10T03:02:14.859Z,64.03
2018-02-10T03:04:42.418Z,51.33
2018-02-10T03:07:09.997Z,56.88
2018-02-10T03:09:37.495Z,61.33
2018-02-10T03:12:05.098Z,51.25
2018-02-10T03:14:32.645Z,50.92
2018-02-10T03:17:00.133Z,55.97
2018-02-10T03:19:28.166Z,51.15
2018-02-10T03:21:56.637Z,50.83
2018-02-10T03:24:24.431Z,44.45
2018-02-10T03:26:51.912Z,52.80
2018-02-10T03:29:19.448Z,54.70
2018-02-10T03:31:46.946Z,41.00
2018-02-10T03:34:14.454Z,49.50
2018-02-10T03:36:41.962Z,48.47
2018-02-10T03:39:09.462Z,47.95
2018-02-10T03:41:36.959Z,49.88
2018-02-10T03:44:04.504Z,63.60
2018-02-10T03:46:31.996Z,51.65
2018-02-10T03:48:59.515Z,47.85
2018-02-10T03:51:27.026Z,46.83
2018-02-10T03:53:54.530Z,46.42
2018-02-10T03:56:22.041Z,48.97
2018-02-10T03:58:49.536Z,47.83
2018-02-10T04:01:17.074Z,50.05
2018-02-10T04:03:44.567Z,53.35
2018-02-10T04:06:12.106Z,53.40
2018-02-10T04:08:39.589Z,53.92
2018-02-10T04:11:07.098Z,44.90
2018-02-10T04:13:34.589Z,56.83
2018-02-10T04:16:02.098Z,48.85
2018-02-10T04:18:29.601Z,51.88
2018-02-10T04:20:57.105Z,50.80
2018-02-10T04:23:24.606Z,52.30
2018-02-10T04:25:52.118Z,59.72
2018-02-10T04:28:19.609Z,50.72
2018-02-10T04:30:47.125Z,44.35
2018-02-10T04:33:14.619Z,53.28
2018-02-10T04:35:42.138Z,52.25
2018-02-10T04:38:09.641Z,49.55
2018-02-10T04:40:38.153Z,47.72
2018-02-10T04:43:05.637Z,54.80
2018-02-10T04:45:33.142Z,51.33
2018-02-10T04:48:00.630Z,51.47
2018-02-10T04:50:28.145Z,49.15
2018-02-10T04:52:55.865Z,48.22
2018-02-10T04:55:23.400Z,45.88
2018-02-10T04:57:50.979Z,48.42
2018-02-10T05:00:18.542Z,49.85
2018-02-10T05:02:46.101Z,43.95
2018-02-10T05:05:13.597Z,44.10
2018-02-10T05:07:41.113Z,40.85
2018-02-10T05:10:08.676Z,51.25
2018-02-10T05:12:36.194Z,39.55
2018-02-10T05:15:03.688Z,46.47
2018-02-10T05:17:31.205Z,43.85
2018-02-10T05:19:58.724Z,41.95
2018-02-10T05:22:26.233Z,38.20
2018-02-10T05:24:53.760Z,44.63
2018-02-10T05:27:22.266Z,41.28
2018-02-10T05:29:49.761Z,47.92
2018-02-10T05:32:17.454Z,48.13
2018-02-10T05:34:44.996Z,43.67
2018-02-10T05:37:12.556Z,38.30
2018-02-10T05:39:40.051Z,37.50
2018-02-10T05:42:07.560Z,47.10
2018-02-10T05:44:35.054Z,40.12
2018-02-10T05:47:02.589Z,47.67
2018-02-10T05:49:30.103Z,41.22
2018-02-10T05:51:57.709Z,49.88
2018-02-10T05:54:25.473Z,44.95
2018-02-10T05:56:53.067Z,41.78
2018-02-10T05:59:20.726Z,42.28
2018-02-10T06:01:48.262Z,38.00
2018-02-10T06:04:15.754Z,37.70
2018-02-10T06:06:43.279Z,40.75
2018-02-10T06:09:10.798Z,39.25
2018-02-10T06:11:38.318Z,46.78
2018-02-10T06:14:05.808Z,40.45
2018-02-10T06:16:33.322Z,38.30
2018-02-10T06:19:00.839Z,48.63
2018-02-10T06:21:29.737Z,43.13
2018-02-10T06:23:57.604Z,39.20
2018-02-10T06:26:25.181Z,43.90
2018-02-10T06:28:52.678Z,39.15
2018-02-10T06:31:20.197Z,45.38
2018-02-10T06:33:47.693Z,41.08
2018-02-10T06:36:16.201Z,43.20
2018-02-10T06:38:43.697Z,50.90
2018-02-10T06:41:11.217Z,48.65
2018-02-10T06:43:38.713Z,47.75
2018-02-10T06:46:06.256Z,43.85
2018-02-10T06:48:33.902Z,44.20
2018-02-10T06:51:01.399Z,40.33
2018-02-10T06:53:28.917Z,45.53
2018-02-10T06:55:56.410Z,43.35
2018-02-10T06:58:23.927Z,48.03
2018-02-10T07:00:51.429Z,44.97
2018-02-10T07:03:18.918Z,39.88
2018-02-10T07:05:46.409Z,40.58
2018-02-10T07:08:13.901Z,40.65
2018-02-10T07:10:41.394Z,40.72
2018-02-10T07:13:08.892Z,41.37
2018-02-10T07:15:36.383Z,45.15
2018-02-10T07:18:03.900Z,39.08
2018-02-10T07:20:31.578Z,40.92
2018-02-10T07:22:59.428Z,42.33
2018-02-10T07:25:26.921Z,39.35
2018-02-10T07:27:54.433Z,35.35
2018-02-10T07:30:21.931Z,40.80
2018-02-10T07:32:49.433Z,38.60
2018-02-10T07:35:17.259Z,54.42
2018-02-10T07:37:44.832Z,42.35
2018-02-10T07:40:12.331Z,39.30
2018-02-10T07:42:39.829Z,44.38
2018-02-10T07:45:07.335Z,38.63
2018-02-10T07:47:34.825Z,45.58
2018-02-10T07:50:02.321Z,42.33
2018-02-10T07:52:29.832Z,49.38
2018-02-10T07:54:57.321Z,63.67
2018-02-10T07:57:24.835Z,63.45
2018-02-10T07:59:52.326Z,68.55
2018-02-10T08:02:19.851Z,80.03
2018-02-10T08:04:47.350Z,45.92
2018-02-10T08:07:14.866Z,43.72
2018-02-10T08:09:42.360Z,37.22
2018-02-10T08:12:09.875Z,33.42
2018-02-10T08:14:37.403Z,32.28
2018-02-10T08:17:04.902Z,36.47
2018-02-10T08:19:32.398Z,34.85
2018-02-10T08:21:59.890Z,38.67
2018-02-10T08:24:27.374Z,33.85
2018-02-10T08:26:54.861Z,32.83
2018-02-10T08:29:22.353Z,36.45
2018-02-10T08:31:49.841Z,35.13
2018-02-10T08:34:17.385Z,33.13
2018-02-10T08:36:44.882Z,37.28
2018-02-10T08:39:12.370Z,35.42
2018-02-10T08:41:39.867Z,41.20
2018-02-10T08:44:07.378Z,36.95
2018-02-10T08:46:34.870Z,30.23
2018-02-10T08:49:02.368Z,33.45
2018-02-10T08:51:29.853Z,35.65
2018-02-10T08:53:57.341Z,37.03
2018-02-10T08:56:25.766Z,31.40
2018-02-10T08:58:54.305Z,31.67
2018-02-10T09:01:21.789Z,29.12
2018-02-10T09:03:49.322Z,28.85
2018-02-10T09:06:17.803Z,30.20
2018-02-10T09:08:45.294Z,31.75
2018-02-10T09:11:12.825Z,38.58
2018-02-10T09:13:42.058Z,37.10
2018-02-10T09:16:09.555Z,32.70
2018-02-10T09:18:37.078Z,33.97
2018-02-10T09:21:04.566Z,31.25
2018-02-10T09:23:32.071Z,30.95
2018-02-10T09:25:59.556Z,30.10
2018-02-10T09:28:27.074Z,28.17
2018-02-10T09:30:54.561Z,28.83
2018-02-10T09:33:22.073Z,28.35
2018-02-10T09:35:49.595Z,26.98
2018-02-10T09:38:17.208Z,30.05
2018-02-10T09:40:44.705Z,28.42
2018-02-10T09:43:12.215Z,31.83
2018-02-10T09:45:39.722Z,28.75
2018-02-10T09:48:07.204Z,26.55
2018-02-10T09:50:34.804Z,35.13
2018-02-10T09:53:02.362Z,24.00
2018-02-10T09:55:29.874Z,25.67
2018-02-10T09:57:57.393Z,29.75
2018-02-10T10:00:24.877Z,26.65
2018-02-10T10:02:52.372Z,26.60
2018-02-10T10:05:20.225Z,21.62
2018-02-10T10:07:47.822Z,24.67
2018-02-10T10:10:15.382Z,21.75
2018-02-10T10:12:42.873Z,22.27
2018-02-10T10:15:10.362Z,28.55
2018-02-10T10:17:37.957Z,22.95
2018-02-10T10:20:06.195Z,21.75
2018-02-10T10:22:33.793Z,23.23
2018-02-10T10:25:01.286Z,21.90
2018-02-10T10:27:28.782Z,24.52
2018-02-10T10:29:56.279Z,20.83
2018-02-10T10:32:23.817Z,23.15
2018-02-10T10:34:51.470Z,22.80
2018-02-10T10:37:19.356Z,21.60
2018-02-10T10:39:46.916Z,22.27
2018-02-10T10:42:14.396Z,19.50
2018-02-10T10:44:41.893Z,23.10
2018-02-10T10:47:09.394Z,20.45
2018-02-10T10:49:38.144Z,20.90
2018-02-10T10:52:06.590Z,21.33
2018-02-10T10:54:35.122Z,26.02
2018-02-10T10:57:02.621Z,22.67
2018-02-10T10:59:30.259Z,22.10
2018-02-10T11:01:57.759Z,25.02
2018-02-10T11:04:25.278Z,20.42
2018-02-10T11:06:52.836Z,22.15
2018-02-10T11:09:20.396Z,18.45
2018-02-10T11:11:47.889Z,23.52
2018-02-10T11:14:15.401Z,24.17
2018-02-10T11:16:42.924Z,22.60
2018-02-10T11:19:10.532Z,21.52
2018-02-10T11:21:38.138Z,25.37
2018-02-10T11:24:05.653Z,23.15
2018-02-10T11:26:33.144Z,23.90
2018-02-10T11:29:00.658Z,24.73
2018-02-10T11:31:28.154Z,24.42
2018-02-10T11:33:55.685Z,23.15
2018-02-10T11:36:23.186Z,23.85
2018-02-10T11:38:50.804Z,20.73
2018-02-10T11:41:18.363Z,23.30
2018-02-10T11:43:45.923Z,32.08
2018-02-10T11:46:13.419Z,24.77
2018-02-10T11:48:40.936Z,24.25
2018-02-10T11:51:08.454Z,21.62
2018-02-10T11:53:35.951Z,23.62
2018-02-10T11:56:03.445Z,26.35
2018-02-10T11:58:30.934Z,23.05
2018-02-10T12:00:58.535Z,23.33
2018-02-10T12:03:26.030Z,23.70
2018-02-10T12:05:53.541Z,22.37
2018-02-10T12:08:21.041Z,22.70
2018-02-10T12:10:48.565Z,21.15
2018-02-10T12:13:16.064Z,23.62
2018-02-10T12:15:43.585Z,21.73
2018-02-10T12:18:11.444Z,21.62
2018-02-10T12:20:39.009Z,22.20
2018-02-10T12:23:06.603Z,16.62
2018-02-10T12:25:34.128Z,22.77
2018-02-10T12:28:01.625Z,20.35
2018-02-10T12:30:29.140Z,18.62
2018-02-10T12:32:56.645Z,18.92
2018-02-10T12:35:24.153Z,19.85
2018-02-10T12:37:51.654Z,22.75
2018-02-10T12:40:19.216Z,18.05
2018-02-10T12:42:46.944Z,22.20
2018-02-10T12:45:14.503Z,17.90
2018-02-10T12:47:58.549Z,22.23
2018-02-10T12:50:26.046Z,22.02
2018-02-10T12:52:53.533Z,18.58
2018-02-10T12:55:21.051Z,21.20
2018-02-10T12:57:48.545Z,20.35
2018-02-10T13:00:16.031Z,26.08
2018-02-10T13:02:43.537Z,19.23
2018-02-10T13:05:11.152Z,37.58
2018-02-10T13:07:38.646Z,21.70
2018-02-10T13:10:06.133Z,19.42
2018-02-10T13:12:33.687Z,21.80
2018-02-10T13:15:01.405Z,17.55
2018-02-10T13:17:28.966Z,15.75
2018-02-10T13:19:56.524Z,14.10
2018-02-10T13:22:24.749Z,40.85
2018-02-10T13:24:52.245Z,17.87
2018-02-10T13:27:19.790Z,16.60
2018-02-10T13:29:47.237Z,14.38
2018-02-10T13:32:14.763Z,17.17
2018-02-10T13:34:42.258Z,18.02
2018-02-10T13:37:09.974Z,19.52
2018-02-10T13:39:38.410Z,18.50
2018-02-10T13:42:05.910Z,25.98
2018-02-10T13:44:33.554Z,18.52
2018-02-10T13:47:01.079Z,19.35
2018-02-10T13:49:28.673Z,13.80
2018-02-10T13:51:56.168Z,15.85
2018-02-10T13:54:23.745Z,16.05
2018-02-10T13:56:51.250Z,18.85
2018-02-10T13:59:18.765Z,23.92
2018-02-10T14:01:46.278Z,18.48
2018-02-10T14:04:13.787Z,16.35
2018-02-10T14:06:41.285Z,18.23
2018-02-10T14:09:08.789Z,15.23
2018-02-10T14:11:36.303Z,16.90
2018-02-10T14:14:03.970Z,20.92
2018-02-10T14:16:31.481Z,21.58
2018-02-10T14:18:58.987Z,24.15
2018-02-10T14:21:26.482Z,60.05
2018-02-10T14:23:53.995Z,15.13
2018-02-10T14:26:21.499Z,20.42
2018-02-10T14:28:49.117Z,16.08
2018-02-10T14:31:16.646Z,19.33
2018-02-10T14:33:44.171Z,18.87
2018-02-10T14:36:11.690Z,21.25
2018-02-10T14:38:39.177Z,19.48
2018-02-10T14:41:06.758Z,19.65
2018-02-10T14:43:34.250Z,22.33
2018-02-10T14:46:01.738Z,19.90
2018-02-10T14:48:29.249Z,18.50
2018-02-10T14:50:56.741Z,24.70
2018-02-10T14:53:24.234Z,24.08
2018-02-10T14:55:51.747Z,19.17
2018-02-10T14:58:19.257Z,25.83
2018-02-10T15:00:46.753Z,22.85
2018-02-10T15:03:14.250Z,25.88
2018-02-10T15:05:41.761Z,21.48
2018-02-10T15:08:09.258Z,22.80
2018-02-10T15:10:36.754Z,22.17
2018-02-10T15:13:04.257Z,25.35
2018-02-10T15:15:31.755Z,24.60
2018-02-10T15:17:59.246Z,35.85
2018-02-10T15:20:27.105Z,30.17
2018-02-10T15:22:55.394Z,29.10
2018-02-10T15:25:22.713Z,21.27
2018-02-10T15:27:50.211Z,22.50
2018-02-10T15:30:23.590Z,27.52
2018-02-10T15:32:56.754Z,21.83
2018-02-10T15:35:24.250Z,23.58
2018-02-10T15:37:51.757Z,22.30
2018-02-10T15:40:19.254Z,21.92
2018-02-10T15:42:46.506Z,23.30
2018-02-10T15:45:14.006Z,20.02
2018-02-10T15:47:41.574Z,29.77
2018-02-10T15:50:09.137Z,51.13
2018-02-10T15:52:36.641Z,148.70
2018-02-10T15:55:04.125Z,35.42
2018-02-10T15:57:31.710Z,52.50
2018-02-10T15:59:59.193Z,35.95
2018-02-10T16:02:26.717Z,49.55
2018-02-10T16:04:54.204Z,36.55
2018-02-10T16:07:21.693Z,42.30
2018-02-10T16:09:49.195Z,27.00
2018-02-10T16:12:16.717Z,31.50
2018-02-10T16:14:44.230Z,26.73
2018-02-10T16:17:11.743Z,33.70
2018-02-10T16:19:39.226Z,32.67
2018-02-10T16:22:06.737Z,26.92
2018-02-10T16:24:34.249Z,26.33
2018-02-10T16:27:01.762Z,26.67
2018-02-10T16:29:29.257Z,27.65
2018-02-10T16:31:56.769Z,33.85
2018-02-10T16:34:24.253Z,29.92
2018-02-10T16:36:51.774Z,24.50
2018-02-10T16:39:19.270Z,23.67
2018-02-10T16:41:46.786Z,26.00
2018-02-10T16:44:14.281Z,28.50
2018-02-10T16:46:41.807Z,24.40
2018-02-10T16:49:09.297Z,23.95
2018-02-10T16:51:36.791Z,25.70
2018-02-10T16:54:04.291Z,22.65
2018-02-10T16:56:31.796Z,24.30
2018-02-10T16:58:59.294Z,25.00
2018-02-10T17:01:26.781Z,31.85
2018-02-10T17:03:54.274Z,20.70
2018-02-10T17:06:21.771Z,20.90
2018-02-10T17:08:49.271Z,24.90
2018-02-10T17:11:17.781Z,27.13
2018-02-10T17:13:45.297Z,24.95
2018-02-10T17:16:13.805Z,28.48
2018-02-10T17:18:41.323Z,29.75
2018-02-10T17:21:08.813Z,27.58
2018-02-10T17:23:36.812Z,34.10
2018-02-10T17:26:04.302Z,26.55
2018-02-10T17:28:31.809Z,38.17
2018-02-10T17:30:59.180Z,46.35
2018-02-10T17:33:26.727Z,46.83
2018-02-10T17:35:54.311Z,35.38
2018-02-10T17:38:22.679Z,28.92
2018-02-10T17:40:50.243Z,32.83
2018-02-10T17:43:17.749Z,32.17
2018-02-10T17:45:45.255Z,28.40
2018-02-10T17:48:12.762Z,34.40
2018-02-10T17:50:40.250Z,34.75
2018-02-10T17:53:07.762Z,33.13
2018-02-10T17:55:35.394Z,31.02
2018-02-10T17:58:02.895Z,30.30
2018-02-10T18:00:30.386Z,37.08
2018-02-10T18:02:57.899Z,31.17
2018-02-10T18:05:25.397Z,37.40
2018-02-10T18:07:53.279Z,36.95
2018-02-10T18:10:20.778Z,39.70
2018-02-10T18:12:48.322Z,32.17
2018-02-10T18:15:16.282Z,31.33
2018-02-10T18:17:43.794Z,33.83
2018-02-10T18:20:11.809Z,36.42
2018-02-10T18:22:39.305Z,30.85
2018-02-10T18:25:06.816Z,31.30
2018-02-10T18:27:34.328Z,37.72
2018-02-10T18:30:01.824Z,39.90
2018-02-10T18:32:29.337Z,45.22
2018-02-10T18:34:56.824Z,35.10
2018-02-10T18:37:24.338Z,42.33
2018-02-10T18:39:51.837Z,46.83
2018-02-10T18:42:19.721Z,32.30
2018-02-10T18:44:47.215Z,39.08
2018-02-10T18:47:14.763Z,31.27
2018-02-10T18:49:42.324Z,36.28
2018-02-10T18:52:09.842Z,33.72
2018-02-10T18:54:37.332Z,32.75
2018-02-10T18:57:04.854Z,30.42
2018-02-10T18:59:32.350Z,38.03
2018-02-10T19:01:59.838Z,37.95
2018-02-10T19:04:27.348Z,34.63
2018-02-10T19:06:55.045Z,36.22
2018-02-10T19:09:23.481Z,36.00
2018-02-10T19:11:50.975Z,84.07
2018-02-10T19:14:18.287Z,43.05
2018-02-10T19:16:45.882Z,55.00
2018-02-10T19:19:13.384Z,29.70
2018-02-10T19:21:40.685Z,40.75
2018-02-10T19:24:08.255Z,29.85
2018-02-10T19:26:35.813Z,29.27
2018-02-10T19:29:03.372Z,38.05
2018-02-10T19:31:30.865Z,32.95
2018-02-10T19:33:58.357Z,29.15
2018-02-10T19:36:25.745Z,31.35
2018-02-10T19:38:53.303Z,33.70
2018-02-10T19:41:20.798Z,33.38
2018-02-10T19:43:48.320Z,28.05
2018-02-10T19:46:15.880Z,33.85
2018-02-10T19:48:43.369Z,23.95
2018-02-10T19:51:10.861Z,26.67
2018-02-10T19:53:38.362Z,25.15
2018-02-10T19:56:05.849Z,31.75
2018-02-10T19:58:33.335Z,27.98
2018-02-10T20:01:00.955Z,26.70
2018-02-10T20:03:28.466Z,24.85
2018-02-10T20:05:55.957Z,24.42
2018-02-10T20:08:25.410Z,24.75
2018-02-10T20:10:53.657Z,26.85
2018-02-10T20:13:21.173Z,27.17
2018-02-10T20:15:48.669Z,30.08
2018-02-10T20:18:16.178Z,26.10
2018-02-10T20:20:43.762Z,23.45
2018-02-10T20:23:11.274Z,20.52
2018-02-10T20:25:38.882Z,23.35
2018-02-10T20:28:06.398Z,21.37
2018-02-10T20:30:33.896Z,20.48
2018-02-10T20:33:01.385Z,20.15
2018-02-10T20:35:28.906Z,19.77
2018-02-10T20:37:56.417Z,24.17
2018-02-10T20:40:23.913Z,16.08
2018-02-10T20:42:51.491Z,18.40
2018-02-10T20:45:19.037Z,18.17
2018-02-10T20:47:46.538Z,39.10
2018-02-10T20:50:14.046Z,21.48
2018-02-10T20:52:41.530Z,17.33
2018-02-10T20:55:09.031Z,17.83
2018-02-10T20:57:36.525Z,16.48
2018-02-10T21:00:04.102Z,15.95
2018-02-10T21:02:31.595Z,19.35
2018-02-10T21:05:00.066Z,13.95
2018-02-10T21:07:27.570Z,19.50
2018-02-10T21:09:54.991Z,22.17
2018-02-10T21:12:22.655Z,17.80
2018-02-10T21:14:50.132Z,13.70
2018-02-10T21:17:17.627Z,19.50
2018-02-10T21:19:45.146Z,54.63
2018-02-10T21:22:12.640Z,19.50
2018-02-10T21:24:42.095Z,13.40
2018-02-10T21:27:09.593Z,13.85
2018-02-10T21:29:38.125Z,13.95
2018-02-10T21:32:05.630Z,14.75
2018-02-10T21:34:33.145Z,13.27
2018-02-10T21:37:01.563Z,15.80
2018-02-10T21:39:29.072Z,11.25
2018-02-10T21:41:56.593Z,16.12
2018-02-10T21:44:24.097Z,18.27
2018-02-10T21:46:51.583Z,17.25
2018-02-10T21:49:19.106Z,12.93
2018-02-10T21:51:46.589Z,13.55
2018-02-10T21:54:14.134Z,14.52
2018-02-10T21:56:41.610Z,13.55
2018-02-10T21:59:09.109Z,17.60
2018-02-10T22:01:36.609Z,15.57
2018-02-10T22:04:04.113Z,12.60
2018-02-10T22:06:31.627Z,11.90
2018-02-10T22:08:59.117Z,12.63
2018-02-10T22:11:26.601Z,14.82
2018-02-10T22:13:54.094Z,13.70
2018-02-10T22:16:21.569Z,13.48
2018-02-10T22:18:49.053Z,13.50
2018-02-10T22:21:16.543Z,19.45
2018-02-10T22:23:44.036Z,17.98
2018-02-10T22:26:11.541Z,14.50
2018-02-10T22:28:39.033Z,17.60
2018-02-10T22:31:06.530Z,16.27
2018-02-10T22:33:34.028Z,17.27
2018-02-10T22:36:01.522Z,16.87
2018-02-10T22:38:29.022Z,16.52
2018-02-10T22:40:56.513Z,16.60
2018-02-10T22:43:24.002Z,15.30
2018-02-10T22:45:51.533Z,15.07
2018-02-10T22:48:19.017Z,13.82
2018-02-10T22:50:46.501Z,12.88
2018-02-10T22:53:14.005Z,13.35
2018-02-10T22:55:41.484Z,13.35
2018-02-10T22:58:09.025Z,13.07
2018-02-10T23:00:36.524Z,11.63
2018-02-10T23:03:04.009Z,11.12
2018-02-10T23:05:31.644Z,15.70
2018-02-10T23:07:59.137Z,12.10
2018-02-10T23:10:26.645Z,12.05
2018-02-10T23:12:54.133Z,10.68
2018-02-10T23:15:21.649Z,11.45
2018-02-10T23:17:50.071Z,10.70
2018-02-10T23:20:18.585Z,11.68
2018-02-10T23:22:46.070Z,12.57
2018-02-10T23:25:13.595Z,11.15
2018-02-10T23:27:41.109Z,10.90
2018-02-10T23:30:08.624Z,13.25
2018-02-10T23:32:36.123Z,11.95
2018-02-10T23:35:03.674Z,13.70
2018-02-10T23:37:31.235Z,12.18
2018-02-10T23:39:58.762Z,11.60
2018-02-10T23:42:26.417Z,9.60
2018-02-10T23:44:53.917Z,11.85
2018-02-10T23:47:21.472Z,9.43
2018-02-10T23:49:49.033Z,10.35
2018-02-10T23:52:16.592Z,9.70
2018-02-10T23:54:44.100Z,13.30
2018-02-10T23:57:11.577Z,9.52
2018-02-10T23:59:39.053Z,9.13
